Time;durP1;ratioP1;P1;durP2;ratioP2;P2;SDS_P1;SDS_P2;PMS_P1;PMS_P2;Temp;Humidity;BMP_temperature;BMP_pressure;BME280_temperature;BME280_humidity;BME280_pressure;Samples;Min_cycle;Max_cycle;Signal;HPM_P1;HPM_P2
2022/10/09 00:00:27;;;;;;;6.20;3.00;;;18.30;99.90;;;;;;4193099;28;20733;-74
2022/10/09 00:02:29;;;;;;;4.53;2.72;;;18.30;99.90;;;;;;4196135;28;20300;-74
2022/10/09 00:04:33;;;;;;;3.58;2.53;;;18.30;99.90;;;;;;4196632;28;20223;-74
2022/10/09 00:06:35;;;;;;;4.32;2.65;;;18.20;99.90;;;;;;4189105;28;20212;-74
2022/10/09 00:08:39;;;;;;;5.25;3.15;;;18.20;99.90;;;;;;4193090;28;20725;-74
2022/10/09 00:10:41;;;;;;;5.00;2.63;;;18.30;99.90;;;;;;4191210;28;20285;-74
2022/10/09 00:12:44;;;;;;;4.80;3.22;;;18.20;99.90;;;;;;4201274;28;20631;-74
2022/10/09 00:14:46;;;;;;;5.47;3.08;;;18.20;99.90;;;;;;4195986;28;20218;-74
2022/10/09 00:16:49;;;;;;;4.95;2.97;;;18.20;99.90;;;;;;4188933;28;21079;-74
2022/10/09 00:18:52;;;;;;;6.03;2.88;;;18.20;99.90;;;;;;4191909;28;20215;-74
2022/10/09 00:20:55;;;;;;;4.85;3.38;;;18.20;99.90;;;;;;4196175;28;20269;-74
2022/10/09 00:22:58;;;;;;;4.72;2.80;;;18.20;99.90;;;;;;4192562;28;20243;-74
2022/10/09 00:25:00;;;;;;;6.28;3.20;;;18.20;99.90;;;;;;4195879;28;20619;-74
2022/10/09 00:27:02;;;;;;;4.30;2.78;;;18.20;99.90;;;;;;4196336;28;20215;-74
2022/10/09 00:29:05;;;;;;;6.07;2.60;;;18.20;99.90;;;;;;4196139;28;20245;-74
2022/10/09 00:31:09;;;;;;;5.65;3.00;;;18.20;99.90;;;;;;4196282;28;20211;-74
2022/10/09 00:33:11;;;;;;;5.45;3.10;;;18.20;99.90;;;;;;4196217;28;20704;-74
2022/10/09 00:35:14;;;;;;;4.65;3.08;;;18.20;99.90;;;;;;4190978;28;20216;-74
2022/10/09 00:37:17;;;;;;;4.47;3.03;;;18.20;99.90;;;;;;4185183;28;20277;-74
2022/10/09 00:39:20;;;;;;;4.88;3.13;;;18.20;99.90;;;;;;4194455;28;20348;-74
2022/10/09 00:41:24;;;;;;;6.60;3.20;;;18.10;99.90;;;;;;4201050;28;20219;-74
2022/10/09 00:43:46;;;;;;;5.43;3.20;;;18.20;99.90;;;;;;4200005;28;20210;-74
2022/10/09 00:45:52;;;;;;;4.95;2.90;;;18.20;99.90;;;;;;4202425;28;20683;-74
2022/10/09 00:47:58;;;;;;;3.33;2.70;;;18.20;99.90;;;;;;4200854;28;20219;-74
2022/10/09 00:50:08;;;;;;;5.05;3.08;;;18.20;99.90;;;;;;4203052;28;20210;-74
2022/10/09 00:52:11;;;;;;;5.30;3.10;;;18.20;99.90;;;;;;4201762;28;20206;-74
2022/10/09 00:54:19;;;;;;;4.90;2.92;;;18.20;99.90;;;;;;4200963;28;20264;-74
2022/10/09 00:56:21;;;;;;;4.40;2.67;;;18.20;99.90;;;;;;4202010;28;20331;-75
2022/10/09 00:58:24;;;;;;;5.28;2.78;;;18.20;99.90;;;;;;4200047;28;20210;-75
2022/10/09 01:00:27;;;;;;;5.07;2.70;;;18.20;99.90;;;;;;4200169;28;20264;-75
2022/10/09 01:02:29;;;;;;;5.38;3.00;;;18.20;99.90;;;;;;4201020;28;20303;-75
2022/10/09 01:04:31;;;;;;;4.65;3.10;;;18.20;99.90;;;;;;4202626;28;20272;-75
2022/10/09 01:06:48;;;;;;;4.95;3.22;;;18.20;99.90;;;;;;4202479;28;20218;-75
2022/10/09 01:08:57;;;;;;;6.07;3.30;;;18.20;99.90;;;;;;4198263;28;20628;-75
2022/10/09 01:11:08;;;;;;;5.47;3.10;;;18.10;99.90;;;;;;4193969;28;20287;-75
2022/10/09 01:13:16;;;;;;;5.68;3.10;;;18.20;99.90;;;;;;4199275;28;20214;-75
2022/10/09 01:15:23;;;;;;;4.85;2.80;;;18.20;99.90;;;;;;4203676;28;20218;-75
2022/10/09 01:17:35;;;;;;;4.65;2.88;;;18.10;99.90;;;;;;4197497;28;20689;-74
2022/10/09 01:20:00;;;;;;;5.20;3.08;;;18.10;99.90;;;;;;4200912;28;20222;-74
2022/10/09 01:22:10;;;;;;;5.95;2.83;;;18.10;99.90;;;;;;4203057;28;20303;-74
2022/10/09 01:24:24;;;;;;;5.88;3.33;;;18.20;99.90;;;;;;4198001;28;20206;-75
2022/10/09 01:26:47;;;;;;;5.72;3.20;;;18.10;99.90;;;;;;4199132;28;20248;-75
2022/10/09 01:28:53;;;;;;;4.97;3.33;;;18.10;99.90;;;;;;4198745;28;20289;-75
2022/10/09 01:30:57;;;;;;;5.13;3.45;;;18.10;99.90;;;;;;4200415;28;20207;-75
2022/10/09 01:33:00;;;;;;;5.18;2.70;;;18.10;99.90;;;;;;4200506;28;20214;-75
2022/10/09 01:35:04;;;;;;;4.85;3.00;;;18.10;99.90;;;;;;4202799;28;20215;-75
2022/10/09 01:37:08;;;;;;;6.28;3.30;;;18.10;99.90;;;;;;4200213;28;20704;-75
2022/10/09 01:39:16;;;;;;;5.47;2.97;;;18.10;99.90;;;;;;4200669;28;20279;-75
2022/10/09 01:41:18;;;;;;;4.82;3.38;;;18.10;99.90;;;;;;4203437;28;20218;-74
2022/10/09 01:43:22;;;;;;;5.93;3.15;;;18.10;99.90;;;;;;4198163;28;20748;-74
2022/10/09 01:45:25;;;;;;;4.90;3.22;;;18.10;99.90;;;;;;4195375;28;20210;-74
2022/10/09 01:47:27;;;;;;;5.22;3.03;;;18.10;99.90;;;;;;4196551;28;20219;-74
2022/10/09 01:49:41;;;;;;;6.32;3.13;;;18.10;99.90;;;;;;4193423;28;20240;-74
2022/10/09 01:51:51;;;;;;;5.22;3.22;;;18.10;99.90;;;;;;4201549;28;20219;-74
2022/10/09 01:53:58;;;;;;;4.13;3.30;;;18.10;99.90;;;;;;4201586;28;20609;-75
2022/10/09 01:56:07;;;;;;;4.75;3.55;;;18.10;99.90;;;;;;4203882;28;20218;-75
2022/10/09 01:58:15;;;;;;;5.88;3.35;;;18.10;99.90;;;;;;4200562;28;20719;-75
2022/10/09 02:00:20;;;;;;;4.85;3.50;;;18.10;99.90;;;;;;4200273;28;20225;-75
2022/10/09 02:02:22;;;;;;;5.80;3.55;;;18.10;99.90;;;;;;4205373;28;20241;-74
2022/10/09 02:04:25;;;;;;;4.55;3.13;;;18.10;99.90;;;;;;4202635;28;20215;-75
2022/10/09 02:06:28;;;;;;;4.50;3.20;;;18.10;99.90;;;;;;4202751;28;20214;-74
2022/10/09 02:08:32;;;;;;;5.35;3.67;;;18.10;99.90;;;;;;4206188;28;20281;-74
2022/10/09 02:10:37;;;;;;;4.75;3.40;;;18.10;99.90;;;;;;4199720;28;20333;-75
2022/10/09 02:12:45;;;;;;;5.35;3.25;;;18.00;99.90;;;;;;4200628;28;20873;-75
2022/10/09 02:14:48;;;;;;;4.90;3.40;;;18.00;99.90;;;;;;4205148;28;20268;-74
2022/10/09 02:16:58;;;;;;;5.72;3.63;;;18.00;99.90;;;;;;4202556;28;20931;-75
2022/10/09 02:19:03;;;;;;;6.40;3.53;;;18.00;99.90;;;;;;4206563;28;20222;-74
2022/10/09 02:21:09;;;;;;;5.15;3.50;;;18.00;99.90;;;;;;4200910;28;20615;-75
2022/10/09 02:23:13;;;;;;;5.25;3.33;;;18.00;99.90;;;;;;4204448;28;20242;-74
2022/10/09 02:25:18;;;;;;;5.05;3.45;;;18.00;99.90;;;;;;4206457;28;20215;-74
2022/10/09 02:27:22;;;;;;;5.38;3.42;;;18.10;99.90;;;;;;4204390;28;20226;-75
2022/10/09 02:29:24;;;;;;;5.63;3.25;;;18.10;99.90;;;;;;4204199;28;20662;-74
2022/10/09 02:31:29;;;;;;;5.10;3.53;;;18.00;99.90;;;;;;4204688;28;20281;-74
2022/10/09 02:33:34;;;;;;;6.10;3.75;;;18.00;99.90;;;;;;4201645;28;20272;-74
2022/10/09 02:35:37;;;;;;;4.82;3.33;;;18.00;99.90;;;;;;4200731;28;20268;-75
2022/10/09 02:37:39;;;;;;;5.15;3.30;;;18.00;99.90;;;;;;4198401;28;20256;-75
2022/10/09 02:39:42;;;;;;;5.10;3.10;;;18.00;99.90;;;;;;4204931;28;20219;-75
2022/10/09 02:41:44;;;;;;;6.18;3.72;;;18.00;99.90;;;;;;4205594;28;20219;-74
2022/10/09 02:43:47;;;;;;;5.85;3.25;;;18.00;99.90;;;;;;4205388;28;20283;-74
2022/10/09 02:45:49;;;;;;;5.45;3.22;;;18.00;99.90;;;;;;4207940;28;20312;-74
2022/10/09 02:47:51;;;;;;;6.72;3.80;;;18.00;99.90;;;;;;4206619;28;20214;-74
2022/10/09 02:49:56;;;;;;;7.70;3.85;;;18.00;99.90;;;;;;4204079;28;20227;-75
2022/10/09 02:51:58;;;;;;;5.68;3.30;;;18.00;99.90;;;;;;4200900;28;20232;-75
2022/10/09 02:54:00;;;;;;;7.05;3.58;;;18.00;99.90;;;;;;4202331;28;20656;-74
2022/10/09 02:56:03;;;;;;;6.70;3.92;;;18.00;99.90;;;;;;4202843;28;20296;-75
2022/10/09 02:58:05;;;;;;;5.97;3.55;;;18.00;99.90;;;;;;4198511;28;20214;-74
2022/10/09 03:00:09;;;;;;;5.95;3.80;;;18.00;99.90;;;;;;4205613;28;20211;-75
2022/10/09 03:02:11;;;;;;;6.68;4.15;;;17.90;99.90;;;;;;4203422;28;20218;-75
2022/10/09 03:04:13;;;;;;;5.78;3.78;;;17.90;99.90;;;;;;4199813;28;20291;-75
2022/10/09 03:06:19;;;;;;;5.82;3.97;;;17.90;99.90;;;;;;4202137;28;20223;-75
2022/10/09 03:08:21;;;;;;;7.05;3.85;;;18.00;99.90;;;;;;4199242;28;20652;-75
2022/10/09 03:10:23;;;;;;;5.00;3.30;;;18.00;99.90;;;;;;4203121;28;20226;-74
2022/10/09 03:12:26;;;;;;;5.68;3.50;;;17.90;99.90;;;;;;4200539;28;20664;-74
2022/10/09 03:14:28;;;;;;;6.75;3.53;;;17.90;99.90;;;;;;4202774;28;20215;-75
2022/10/09 03:16:30;;;;;;;4.22;3.33;;;17.90;99.90;;;;;;4204159;28;20313;-74
2022/10/09 03:18:32;;;;;;;4.85;3.67;;;17.90;99.90;;;;;;4202914;28;20302;-74
2022/10/09 03:20:35;;;;;;;6.35;3.95;;;17.90;99.90;;;;;;4204310;28;20260;-75
2022/10/09 03:22:38;;;;;;;5.72;3.42;;;17.90;99.90;;;;;;4202497;28;20219;-75
2022/10/09 03:24:41;;;;;;;6.07;3.75;;;17.90;99.90;;;;;;4204828;28;20260;-74
2022/10/09 03:26:43;;;;;;;7.20;4.00;;;17.90;99.90;;;;;;4205310;28;20650;-74
2022/10/09 03:28:50;;;;;;;4.90;3.53;;;17.90;99.90;;;;;;4198919;28;20216;-74
2022/10/09 03:30:52;;;;;;;5.65;3.95;;;17.90;99.90;;;;;;4200404;28;20223;-74
2022/10/09 03:32:54;;;;;;;5.97;3.67;;;17.90;99.90;;;;;;4204150;28;20218;-75
2022/10/09 03:34:57;;;;;;;5.43;3.40;;;17.90;99.90;;;;;;4200361;28;20211;-75
2022/10/09 03:36:59;;;;;;;4.93;3.60;;;17.90;99.90;;;;;;4202095;28;20218;-74
2022/10/09 03:39:03;;;;;;;5.18;3.45;;;17.90;99.90;;;;;;4204621;28;20222;-74
2022/10/09 03:41:06;;;;;;;4.85;3.40;;;17.90;99.90;;;;;;4205687;28;20271;-75
2022/10/09 03:43:08;;;;;;;4.38;3.30;;;17.90;99.90;;;;;;4204359;28;20652;-74
2022/10/09 03:45:11;;;;;;;7.95;3.72;;;17.90;99.90;;;;;;4201258;28;20211;-74
2022/10/09 03:47:13;;;;;;;4.97;3.63;;;17.90;99.90;;;;;;4205084;28;20279;-74
2022/10/09 03:49:16;;;;;;;8.20;3.80;;;17.90;99.90;;;;;;4203022;28;20974;-75
2022/10/09 03:51:19;;;;;;;6.78;4.47;;;17.90;99.90;;;;;;4201020;28;20219;-75
2022/10/09 03:53:21;;;;;;;4.25;3.40;;;17.90;99.90;;;;;;4202321;28;20268;-74
2022/10/09 03:55:25;;;;;;;5.82;3.95;;;17.90;99.90;;;;;;4204247;28;20222;-74
2022/10/09 03:57:27;;;;;;;5.32;3.47;;;17.90;99.90;;;;;;4197989;28;20284;-75
2022/10/09 03:59:29;;;;;;;7.03;3.83;;;17.90;99.90;;;;;;4204128;28;20227;-75
2022/10/09 04:01:31;;;;;;;4.88;3.42;;;17.90;99.90;;;;;;4202643;28;20227;-75
2022/10/09 04:03:34;;;;;;;6.85;3.92;;;17.90;99.90;;;;;;4204477;28;20247;-75
2022/10/09 04:05:36;;;;;;;6.15;3.70;;;17.90;99.90;;;;;;4203631;28;20222;-75
2022/10/09 04:07:38;;;;;;;7.65;4.18;;;17.90;99.90;;;;;;4195344;28;20214;-75
2022/10/09 04:09:41;;;;;;;6.03;3.40;;;17.90;99.90;;;;;;4203038;28;20222;-74
2022/10/09 04:11:44;;;;;;;5.47;3.55;;;17.90;99.90;;;;;;4203881;28;20266;-75
2022/10/09 04:13:47;;;;;;;4.82;3.50;;;17.90;99.90;;;;;;4197084;28;20373;-74
2022/10/09 04:15:53;;;;;;;6.68;3.47;;;17.90;99.90;;;;;;4203689;28;20647;-74
2022/10/09 04:17:55;;;;;;;5.43;3.58;;;17.90;99.90;;;;;;4204588;28;20276;-74
2022/10/09 04:19:57;;;;;;;5.68;3.58;;;17.90;99.90;;;;;;4200431;28;20281;-74
2022/10/09 04:22:00;;;;;;;5.95;3.75;;;17.80;99.90;;;;;;4204185;28;20407;-75
2022/10/09 04:24:02;;;;;;;4.70;3.60;;;17.90;99.90;;;;;;4202992;28;20230;-75
2022/10/09 04:26:05;;;;;;;4.38;3.70;;;17.90;99.90;;;;;;4200479;28;21019;-75
2022/10/09 04:28:09;;;;;;;5.38;3.60;;;17.80;99.90;;;;;;4204542;28;20264;-75
2022/10/09 04:30:11;;;;;;;6.18;3.35;;;17.80;99.90;;;;;;4203338;28;20233;-75
2022/10/09 04:32:14;;;;;;;5.50;3.67;;;17.80;99.90;;;;;;4199529;28;20614;-74
2022/10/09 04:34:16;;;;;;;5.20;3.50;;;17.80;99.90;;;;;;4198775;28;20253;-74
2022/10/09 04:36:18;;;;;;;5.05;3.58;;;17.80;99.90;;;;;;4198362;28;20294;-74
2022/10/09 04:38:22;;;;;;;5.80;3.70;;;17.80;99.90;;;;;;4200839;28;20210;-75
2022/10/09 04:40:24;;;;;;;4.60;3.40;;;17.80;99.90;;;;;;4202378;28;20264;-74
2022/10/09 04:42:26;;;;;;;5.07;3.65;;;17.80;99.90;;;;;;4205143;28;20280;-74
2022/10/09 04:44:30;;;;;;;6.28;3.78;;;17.80;99.90;;;;;;4202060;28;20668;-74
2022/10/09 04:46:32;;;;;;;5.15;3.60;;;17.80;99.90;;;;;;4195183;28;20211;-74
2022/10/09 04:48:38;;;;;;;4.70;3.40;;;17.80;99.90;;;;;;4201418;28;20304;-74
2022/10/09 04:50:40;;;;;;;6.38;3.63;;;17.80;99.90;;;;;;4201799;28;20210;-74
2022/10/09 04:52:42;;;;;;;5.90;3.58;;;17.80;99.90;;;;;;4201008;28;20211;-75
2022/10/09 04:54:45;;;;;;;5.50;3.20;;;17.80;99.90;;;;;;4199809;28;20277;-75
2022/10/09 04:56:47;;;;;;;5.13;3.60;;;17.80;99.90;;;;;;4201265;28;20308;-74
2022/10/09 04:58:50;;;;;;;5.45;3.70;;;17.80;99.90;;;;;;4205350;28;20263;-74
2022/10/09 05:00:54;;;;;;;4.63;3.42;;;17.80;99.90;;;;;;4196734;28;20551;-74
2022/10/09 05:02:56;;;;;;;6.10;3.58;;;17.80;99.90;;;;;;4200627;28;20660;-74
2022/10/09 05:04:58;;;;;;;5.45;3.47;;;17.80;99.90;;;;;;4202494;28;20271;-74
2022/10/09 05:07:01;;;;;;;7.60;3.95;;;17.80;99.90;;;;;;4201666;28;20260;-75
2022/10/09 05:09:03;;;;;;;5.88;3.63;;;17.80;99.90;;;;;;4199491;28;20311;-75
2022/10/09 05:11:07;;;;;;;5.63;3.60;;;17.80;99.90;;;;;;4201116;28;20706;-75
2022/10/09 05:13:10;;;;;;;5.22;3.42;;;17.80;99.90;;;;;;4203018;28;20266;-74
2022/10/09 05:15:12;;;;;;;5.88;3.85;;;17.80;99.90;;;;;;4201209;28;20663;-74
2022/10/09 05:17:15;;;;;;;6.00;3.70;;;17.80;99.90;;;;;;4199788;28;20214;-74
2022/10/09 05:19:18;;;;;;;8.30;3.63;;;17.80;99.90;;;;;;4202663;28;20214;-74
2022/10/09 05:21:21;;;;;;;5.78;3.72;;;17.80;99.90;;;;;;4198491;28;20219;-74
2022/10/09 05:23:23;;;;;;;5.22;3.38;;;17.80;99.90;;;;;;4201071;28;20214;-74
2022/10/09 05:25:26;;;;;;;5.32;3.53;;;17.80;99.90;;;;;;4198181;28;20291;-75
2022/10/09 05:27:28;;;;;;;4.95;3.60;;;17.80;99.90;;;;;;4198292;28;20219;-75
2022/10/09 05:29:30;;;;;;;7.65;3.13;;;17.80;99.90;;;;;;4200564;28;20230;-75
2022/10/09 05:31:32;;;;;;;6.40;3.58;;;17.80;99.90;;;;;;4198929;28;20219;-75
2022/10/09 05:33:36;;;;;;;5.93;3.97;;;17.80;99.90;;;;;;4198246;28;20581;-74
2022/10/09 05:35:38;;;;;;;5.20;3.55;;;17.70;99.90;;;;;;4202212;28;20210;-74
2022/10/09 05:37:44;;;;;;;4.88;3.30;;;17.80;99.90;;;;;;4200947;28;20265;-75
2022/10/09 05:39:46;;;;;;;5.55;3.58;;;17.80;99.90;;;;;;4201196;28;20804;-75
2022/10/09 05:41:48;;;;;;;5.05;3.55;;;17.80;99.90;;;;;;4201695;28;20206;-75
2022/10/09 05:43:51;;;;;;;5.32;3.13;;;17.80;99.90;;;;;;4205084;28;20617;-74
2022/10/09 05:45:53;;;;;;;5.90;3.63;;;17.80;99.90;;;;;;4203103;28;20226;-74
2022/10/09 05:47:56;;;;;;;5.70;3.38;;;17.70;99.90;;;;;;4200083;28;20267;-75
2022/10/09 05:49:59;;;;;;;5.57;3.30;;;17.70;99.90;;;;;;4205696;28;20279;-74
2022/10/09 05:52:02;;;;;;;5.93;3.80;;;17.80;99.90;;;;;;4201430;28;20214;-75
2022/10/09 05:54:06;;;;;;;4.78;3.13;;;17.80;99.90;;;;;;4202485;28;20654;-75
2022/10/09 05:56:16;;;;;;;4.88;3.47;;;17.70;99.90;;;;;;4202090;28;20252;-75
2022/10/09 05:58:19;;;;;;;6.38;3.45;;;17.70;99.90;;;;;;4201552;28;20621;-75
2022/10/09 06:00:21;;;;;;;5.32;3.53;;;17.80;99.90;;;;;;4202144;28;20609;-75
2022/10/09 06:02:23;;;;;;;4.95;3.40;;;17.70;99.90;;;;;;4202637;28;20619;-75
2022/10/09 06:04:26;;;;;;;7.53;3.85;;;17.70;99.90;;;;;;4199331;28;20218;-74
2022/10/09 06:06:31;;;;;;;4.72;3.30;;;17.80;99.90;;;;;;4204827;28;20214;-75
2022/10/09 06:08:35;;;;;;;7.20;3.53;;;17.80;99.90;;;;;;4203560;28;20223;-74
2022/10/09 06:10:37;;;;;;;5.07;3.35;;;17.80;99.90;;;;;;4199163;28;20295;-75
2022/10/09 06:12:40;;;;;;;5.80;3.55;;;17.80;99.90;;;;;;4204173;28;20272;-74
2022/10/09 06:14:42;;;;;;;4.25;3.08;;;17.80;99.90;;;;;;4203009;28;20226;-74
2022/10/09 06:16:45;;;;;;;4.22;3.20;;;17.80;99.90;;;;;;4197156;28;20272;-75
2022/10/09 06:18:48;;;;;;;5.63;3.50;;;17.70;99.90;;;;;;4198684;28;20659;-75
2022/10/09 06:20:54;;;;;;;6.18;3.78;;;17.80;99.90;;;;;;4204669;28;20214;-75
2022/10/09 06:22:57;;;;;;;4.95;3.40;;;17.70;99.90;;;;;;4204546;28;20280;-74
2022/10/09 06:25:00;;;;;;;4.55;3.05;;;17.70;99.90;;;;;;4201055;28;20970;-74
2022/10/09 06:27:02;;;;;;;6.57;3.35;;;17.80;99.90;;;;;;4199071;28;20222;-74
2022/10/09 06:29:04;;;;;;;4.78;3.30;;;17.80;99.90;;;;;;4199324;28;20211;-74
2022/10/09 06:31:08;;;;;;;6.35;3.38;;;17.80;99.90;;;;;;4200862;28;20222;-74
2022/10/09 06:33:12;;;;;;;5.07;3.42;;;17.80;99.90;;;;;;4200657;28;20686;-75
2022/10/09 06:35:14;;;;;;;4.40;2.97;;;17.70;99.90;;;;;;4191353;28;20626;-74
2022/10/09 06:37:16;;;;;;;6.30;3.10;;;17.80;99.90;;;;;;4201304;28;20662;-74
2022/10/09 06:39:21;;;;;;;5.53;3.25;;;17.70;99.90;;;;;;4199114;28;20226;-75
2022/10/09 06:41:26;;;;;;;4.05;3.00;;;17.80;99.90;;;;;;4203898;28;20630;-74
2022/10/09 06:43:28;;;;;;;4.07;3.40;;;17.70;99.90;;;;;;4201622;28;20611;-75
2022/10/09 06:45:31;;;;;;;5.22;3.33;;;17.70;99.90;;;;;;4202684;28;20242;-75
2022/10/09 06:47:33;;;;;;;5.97;3.33;;;17.70;99.90;;;;;;4198319;28;20219;-74
2022/10/09 06:49:35;;;;;;;5.85;3.25;;;17.70;99.90;;;;;;4203228;28;20299;-74
2022/10/09 06:51:38;;;;;;;4.78;3.03;;;17.70;99.90;;;;;;4207251;28;20222;-75
2022/10/09 06:53:43;;;;;;;4.43;2.95;;;17.70;99.90;;;;;;4203234;28;20264;-74
2022/10/09 06:55:53;;;;;;;5.03;3.03;;;17.70;99.90;;;;;;4203970;28;20613;-74
2022/10/09 06:57:55;;;;;;;4.28;2.85;;;17.70;99.90;;;;;;4201838;28;20219;-74
2022/10/09 06:59:57;;;;;;;6.28;3.67;;;17.70;99.90;;;;;;4202664;28;20607;-74
2022/10/09 07:02:00;;;;;;;5.80;3.47;;;17.70;99.90;;;;;;4207381;28;20214;-74
2022/10/09 07:04:05;;;;;;;4.47;2.80;;;17.70;99.90;;;;;;4204875;28;20219;-75
2022/10/09 07:06:10;;;;;;;3.78;2.78;;;17.70;99.90;;;;;;4202836;28;20440;-74
2022/10/09 07:08:12;;;;;;;6.25;3.05;;;17.70;99.90;;;;;;4201292;28;20268;-74
2022/10/09 07:10:14;;;;;;;4.82;3.15;;;17.70;99.90;;;;;;4204470;28;20342;-75
2022/10/09 07:12:18;;;;;;;4.50;2.97;;;17.70;99.90;;;;;;4206136;28;20222;-75
2022/10/09 07:14:20;;;;;;;7.57;3.05;;;17.70;99.90;;;;;;4206447;28;20271;-74
2022/10/09 07:16:25;;;;;;;5.35;3.10;;;17.70;99.90;;;;;;4202959;28;20268;-74
2022/10/09 07:18:28;;;;;;;5.40;3.05;;;17.70;99.90;;;;;;4202803;28;20280;-74
2022/10/09 07:20:30;;;;;;;4.70;2.90;;;17.70;99.90;;;;;;4205355;28;20215;-74
2022/10/09 07:22:32;;;;;;;4.68;2.78;;;17.70;99.90;;;;;;4206195;28;20211;-74
2022/10/09 07:24:35;;;;;;;5.95;3.10;;;17.80;99.90;;;;;;4203469;28;20261;-74
2022/10/09 07:26:39;;;;;;;3.63;2.67;;;17.80;99.90;;;;;;4204637;28;20238;-75
2022/10/09 07:28:43;;;;;;;4.95;2.83;;;17.80;99.90;;;;;;4202236;28;20215;-74
2022/10/09 07:30:46;;;;;;;4.43;3.05;;;17.80;99.90;;;;;;4206323;28;20265;-75
2022/10/09 07:32:48;;;;;;;4.07;2.47;;;17.80;99.90;;;;;;4202568;28;20223;-74
2022/10/09 07:34:50;;;;;;;3.95;2.80;;;17.80;99.90;;;;;;4202596;28;20628;-74
2022/10/09 07:36:52;;;;;;;3.97;2.70;;;17.80;99.90;;;;;;4200470;28;21171;-74
2022/10/09 07:38:57;;;;;;;4.68;2.90;;;17.70;99.90;;;;;;4202104;28;20222;-75
2022/10/09 07:41:04;;;;;;;6.20;3.28;;;17.80;99.90;;;;;;4201021;28;20264;-74
2022/10/09 07:43:06;;;;;;;4.85;2.88;;;17.80;99.90;;;;;;4201132;28;20261;-74
2022/10/09 07:45:10;;;;;;;5.55;2.88;;;17.80;99.90;;;;;;4202371;28;20227;-74
2022/10/09 07:47:13;;;;;;;4.25;2.97;;;17.80;99.90;;;;;;4203009;28;20273;-74
2022/10/09 07:49:15;;;;;;;4.25;2.70;;;17.80;99.90;;;;;;4201343;28;20265;-75
2022/10/09 07:51:20;;;;;;;3.53;2.40;;;17.80;99.90;;;;;;4203056;28;20280;-74
2022/10/09 07:53:23;;;;;;;4.63;2.95;;;17.80;99.90;;;;;;4198910;28;20215;-74
2022/10/09 07:55:25;;;;;;;4.25;2.75;;;17.80;99.90;;;;;;4201045;28;20703;-74
2022/10/09 07:57:28;;;;;;;4.85;3.10;;;17.80;99.90;;;;;;4200833;28;20570;-74
2022/10/09 07:59:30;;;;;;;4.10;2.80;;;17.80;99.90;;;;;;4206480;28;20272;-74
2022/10/09 08:01:35;;;;;;;3.88;2.50;;;17.80;99.90;;;;;;4199865;28;20264;-74
2022/10/09 08:03:38;;;;;;;3.75;2.72;;;17.80;99.90;;;;;;4206026;28;20215;-74
2022/10/09 08:05:40;;;;;;;3.80;2.75;;;17.80;99.90;;;;;;4200069;28;20744;-75
2022/10/09 08:07:42;;;;;;;3.58;2.65;;;17.80;99.90;;;;;;4201096;28;20275;-74
2022/10/09 08:09:44;;;;;;;5.13;2.83;;;17.80;99.90;;;;;;4200516;28;20219;-74
2022/10/09 08:11:47;;;;;;;3.65;2.65;;;17.80;99.90;;;;;;4204799;28;20215;-75
2022/10/09 08:13:53;;;;;;;3.97;2.95;;;17.90;99.90;;;;;;4203301;28;20663;-74
2022/10/09 08:15:58;;;;;;;4.25;2.83;;;17.80;99.90;;;;;;4204880;28;20299;-74
2022/10/09 08:18:02;;;;;;;5.00;2.72;;;17.90;99.90;;;;;;4198723;28;20262;-75
2022/10/09 08:20:05;;;;;;;3.28;2.78;;;17.90;99.90;;;;;;4201087;28;20293;-74
2022/10/09 08:22:07;;;;;;;4.40;2.90;;;17.90;99.90;;;;;;4198282;28;20273;-74
2022/10/09 08:24:11;;;;;;;3.63;2.70;;;17.80;99.90;;;;;;4199885;28;20219;-75
2022/10/09 08:26:14;;;;;;;4.50;2.70;;;17.90;99.90;;;;;;4203432;28;20283;-75
2022/10/09 08:28:16;;;;;;;3.17;2.50;;;17.90;99.90;;;;;;4199104;28;20651;-74
2022/10/09 08:30:18;;;;;;;5.57;2.63;;;17.90;99.90;;;;;;4201589;28;20975;-75
2022/10/09 08:32:21;;;;;;;5.20;2.85;;;17.80;99.90;;;;;;4202250;28;20238;-75
2022/10/09 08:34:25;;;;;;;3.72;2.60;;;17.90;99.90;;;;;;4202209;28;20264;-74
2022/10/09 08:36:28;;;;;;;5.00;2.88;;;17.90;99.90;;;;;;4201879;28;20558;-74
2022/10/09 08:38:31;;;;;;;4.25;2.33;;;17.90;99.90;;;;;;4202936;28;20270;-75
2022/10/09 08:40:42;;;;;;;3.83;2.38;;;17.90;99.90;;;;;;4200575;28;20260;-75
2022/10/09 08:42:52;;;;;;;4.05;2.50;;;17.90;99.90;;;;;;4199616;28;20272;-75
2022/10/09 08:44:55;;;;;;;4.28;2.85;;;17.90;99.90;;;;;;4201096;28;20219;-75
2022/10/09 08:47:03;;;;;;;4.18;2.70;;;17.90;99.90;;;;;;4200578;28;20275;-75
2022/10/09 08:49:06;;;;;;;4.05;2.85;;;17.90;99.90;;;;;;4200443;28;20263;-75
2022/10/09 08:51:18;;;;;;;3.95;2.65;;;17.90;99.90;;;;;;4200609;28;20260;-74
2022/10/09 08:53:30;;;;;;;5.90;2.50;;;17.90;99.90;;;;;;4203338;28;20223;-74
2022/10/09 08:55:39;;;;;;;4.07;2.65;;;17.90;99.90;;;;;;4201773;28;20214;-74
2022/10/09 08:57:44;;;;;;;2.92;2.33;;;17.90;99.90;;;;;;4203256;28;20272;-74
2022/10/09 08:59:46;;;;;;;4.03;2.60;;;17.90;99.90;;;;;;4196677;28;20215;-74
2022/10/09 09:01:58;;;;;;;3.63;2.60;;;17.90;99.90;;;;;;4204153;28;20207;-74
2022/10/09 09:04:38;;;;;;;4.95;2.67;;;17.90;99.90;;;;;;4201488;28;20219;-75
2022/10/09 09:06:52;;;;;;;3.83;2.35;;;17.90;99.90;;;;;;4200421;28;20234;-75
2022/10/09 09:09:00;;;;;;;4.35;2.53;;;18.00;99.90;;;;;;4199249;28;20703;-75
2022/10/09 09:11:16;;;;;;;3.95;2.70;;;17.90;99.90;;;;;;4201348;28;20230;-74
2022/10/09 09:13:37;;;;;;;3.35;2.35;;;17.90;99.90;;;;;;4201751;28;20230;-74
2022/10/09 09:15:47;;;;;;;3.90;2.70;;;17.90;99.90;;;;;;4194903;28;20636;-75
2022/10/09 09:17:58;;;;;;;4.20;2.45;;;18.00;99.90;;;;;;4203942;28;20311;-75
2022/10/09 09:20:08;;;;;;;4.63;2.78;;;18.00;99.90;;;;;;4202364;28;20232;-74
2022/10/09 09:22:15;;;;;;;4.45;2.67;;;18.00;99.90;;;;;;4196339;28;20677;-74
2022/10/09 09:24:20;;;;;;;4.07;2.40;;;17.90;99.90;;;;;;4203461;28;20223;-74
2022/10/09 09:26:23;;;;;;;3.38;2.20;;;18.00;99.90;;;;;;4201103;28;20259;-75
2022/10/09 09:28:29;;;;;;;3.83;2.40;;;18.00;99.90;;;;;;4202190;28;20235;-75
2022/10/09 09:30:35;;;;;;;4.50;2.58;;;18.00;99.90;;;;;;4200716;28;20219;-74
2022/10/09 09:32:42;;;;;;;4.85;2.15;;;18.00;99.90;;;;;;4202611;28;20240;-75
2022/10/09 09:34:45;;;;;;;3.92;2.35;;;18.00;99.90;;;;;;4199706;28;20636;-74
2022/10/09 09:36:50;;;;;;;3.05;2.63;;;18.00;99.90;;;;;;4202096;28;20308;-74
2022/10/09 09:38:53;;;;;;;3.88;2.38;;;17.90;99.90;;;;;;4195787;28;20223;-74
2022/10/09 09:40:56;;;;;;;4.10;2.25;;;18.00;99.90;;;;;;4204477;28;20218;-75
2022/10/09 09:42:59;;;;;;;2.97;1.90;;;18.00;99.90;;;;;;4203925;28;20264;-75
2022/10/09 09:45:06;;;;;;;4.18;2.40;;;18.00;99.90;;;;;;4203248;28;20283;-75
2022/10/09 09:47:13;;;;;;;3.53;2.20;;;18.00;99.90;;;;;;4199367;28;20553;-75
2022/10/09 09:49:17;;;;;;;5.13;2.50;;;18.00;99.90;;;;;;4201889;28;20603;-75
2022/10/09 09:51:23;;;;;;;3.90;2.30;;;18.00;99.90;;;;;;4200381;28;20278;-75
2022/10/09 09:53:30;;;;;;;3.70;2.33;;;18.00;99.90;;;;;;4202855;28;20227;-74
2022/10/09 09:55:34;;;;;;;3.38;2.42;;;18.00;99.90;;;;;;4200285;28;20230;-74
2022/10/09 09:57:44;;;;;;;3.40;2.17;;;18.00;99.90;;;;;;4203333;28;20210;-74
2022/10/09 09:59:47;;;;;;;3.38;2.35;;;18.00;99.90;;;;;;4197184;28;20634;-74
2022/10/09 10:02:00;;;;;;;3.75;2.20;;;18.00;99.90;;;;;;4199925;28;20267;-74
2022/10/09 10:04:04;;;;;;;3.00;2.22;;;18.00;99.90;;;;;;4200891;28;20256;-75
2022/10/09 10:06:22;;;;;;;3.83;2.47;;;18.00;99.90;;;;;;4203516;28;20219;-74
2022/10/09 10:08:27;;;;;;;3.92;2.45;;;18.00;99.90;;;;;;4201045;28;20280;-75
2022/10/09 10:10:30;;;;;;;3.83;2.22;;;18.00;99.90;;;;;;4192221;28;20289;-74
2022/10/09 10:12:39;;;;;;;3.63;1.80;;;18.00;99.90;;;;;;4196545;28;20211;-74
2022/10/09 10:14:49;;;;;;;3.17;2.28;;;18.00;99.90;;;;;;4197825;28;20732;-74
2022/10/09 10:16:54;;;;;;;4.20;2.30;;;18.00;99.90;;;;;;4199091;28;20663;-74
2022/10/09 10:18:58;;;;;;;4.30;2.60;;;18.00;99.90;;;;;;4199497;28;20615;-74
2022/10/09 10:21:08;;;;;;;2.80;2.10;;;18.00;99.90;;;;;;4201002;28;20222;-75
2022/10/09 10:23:38;;;;;;;3.80;2.30;;;18.00;99.90;;;;;;4207741;28;20255;-75
2022/10/09 10:25:41;;;;;;;3.90;2.30;;;18.00;99.90;;;;;;4207222;28;20736;-74
2022/10/09 10:27:48;;;;;;;3.25;2.28;;;18.00;99.90;;;;;;4205740;28;20264;-75
2022/10/09 10:29:54;;;;;;;4.70;2.28;;;18.00;99.90;;;;;;4203031;28;20731;-75
2022/10/09 10:32:04;;;;;;;3.55;2.40;;;18.00;99.90;;;;;;4207895;28;20551;-74
2022/10/09 10:34:13;;;;;;;3.03;1.98;;;18.00;99.90;;;;;;4203091;28;20214;-74
2022/10/09 10:36:16;;;;;;;3.65;2.00;;;18.00;99.90;;;;;;4203213;28;20264;-74
2022/10/09 10:38:24;;;;;;;3.63;2.20;;;18.00;99.90;;;;;;4202134;28;20206;-75
2022/10/09 10:40:31;;;;;;;3.30;2.00;;;18.00;99.90;;;;;;4204457;28;20268;-74
2022/10/09 10:42:42;;;;;;;2.50;2.00;;;18.00;99.90;;;;;;4201878;28;20265;-75
2022/10/09 10:44:52;;;;;;;4.28;2.50;;;18.00;99.90;;;;;;4202638;28;20271;-75
2022/10/09 10:47:02;;;;;;;3.92;2.08;;;18.00;99.90;;;;;;4201372;28;20230;-74
2022/10/09 10:49:07;;;;;;;3.47;2.40;;;18.00;99.90;;;;;;4202200;28;20219;-74